createdAt,value
2018-11-10T00:00:36.425Z,0
2018-11-10T00:01:36.708Z,0
2018-11-10T00:02:37.006Z,0
2018-11-10T00:03:36.758Z,0
2018-11-10T00:04:36.770Z,0
2018-11-10T00:05:36.793Z,0
2018-11-10T00:06:36.819Z,0
2018-11-10T00:07:36.571Z,0
2018-11-10T00:08:37.323Z,0
2018-11-10T00:09:36.887Z,0
2018-11-10T00:10:36.907Z,0
2018-11-10T00:11:36.958Z,0
2018-11-10T00:12:36.946Z,0
2018-11-10T00:13:37.253Z,0
2018-11-10T00:14:37.277Z,0
2018-11-10T00:15:37.376Z,0
2018-11-10T00:16:37.186Z,0
2018-11-10T00:17:37.074Z,0
2018-11-10T00:18:37.101Z,0
2018-11-10T00:19:37.376Z,0
2018-11-10T00:20:37.129Z,0
2018-11-10T00:21:37.702Z,0
2018-11-10T00:22:37.177Z,0
2018-11-10T00:23:37.741Z,0
2018-11-10T00:24:37.512Z,0
2018-11-10T00:25:37.250Z,0
2018-11-10T00:26:37.290Z,0
2018-11-10T00:27:37.554Z,0
2018-11-10T00:28:37.321Z,0
2018-11-10T00:29:37.331Z,0
2018-11-10T00:30:37.627Z,0
2018-11-10T00:31:37.668Z,0
2018-11-10T00:32:37.425Z,0
2018-11-10T00:33:37.688Z,0
2018-11-10T00:34:37.596Z,0
2018-11-10T00:35:37.748Z,0
2018-11-10T00:36:37.756Z,0
2018-11-10T00:37:37.523Z,0
2018-11-10T00:38:37.272Z,0
2018-11-10T00:39:38.105Z,0
2018-11-10T00:40:38.123Z,0
2018-11-10T00:41:37.610Z,0
2018-11-10T00:42:37.636Z,0
2018-11-10T00:43:38.200Z,0
2018-11-10T00:44:37.942Z,0
2018-11-10T00:45:38.235Z,0
2018-11-10T00:46:37.995Z,0
2018-11-10T00:47:38.018Z,0
2018-11-10T00:48:38.312Z,0
2018-11-10T00:49:38.325Z,0
2018-11-10T00:50:37.825Z,0
2018-11-10T00:51:37.564Z,0
2018-11-10T00:52:38.130Z,0
2018-11-10T00:53:38.442Z,0
2018-11-10T00:54:37.914Z,0
2018-11-10T00:55:37.661Z,0
2018-11-10T00:56:37.958Z,0
2018-11-10T00:57:37.976Z,0
2018-11-10T00:58:38.249Z,0
2018-11-10T00:59:37.747Z,0
2018-11-10T01:00:38.032Z,0
2018-11-10T01:01:38.058Z,0
2018-11-10T01:02:37.814Z,0
2018-11-10T01:03:38.105Z,0
2018-11-10T01:04:38.382Z,0
2018-11-10T01:05:38.619Z,0
2018-11-10T01:06:38.163Z,0
2018-11-10T01:07:38.195Z,0
2018-11-10T01:08:37.956Z,0
2018-11-10T01:09:38.234Z,0
2018-11-10T01:10:38.548Z,0
2018-11-10T01:11:38.540Z,0
2018-11-10T01:12:38.592Z,0
2018-11-10T01:13:38.607Z,0
2018-11-10T01:14:38.337Z,0
2018-11-10T01:15:38.647Z,0
2018-11-10T01:16:38.402Z,0
2018-11-10T01:17:38.675Z,0
2018-11-10T01:18:38.167Z,0
2018-11-10T01:19:38.453Z,0
2018-11-10T01:20:39.034Z,0
2018-11-10T01:21:38.784Z,0
2018-11-10T01:22:38.530Z,0
2018-11-10T01:23:38.561Z,0
2018-11-10T01:24:38.305Z,0
2018-11-10T01:25:38.875Z,0
2018-11-10T01:26:38.340Z,0
2018-11-10T01:27:39.011Z,0
2018-11-10T01:28:39.193Z,0
2018-11-10T01:29:38.693Z,0
2018-11-10T01:30:38.433Z,0
2018-11-10T01:31:38.993Z,0
2018-11-10T01:32:38.748Z,0
2018-11-10T01:33:38.765Z,0
2018-11-10T01:34:39.083Z,0
2018-11-10T01:35:38.820Z,0
2018-11-10T01:36:38.835Z,0
2018-11-10T01:37:38.852Z,0
2018-11-10T01:38:38.887Z,0
2018-11-10T01:39:39.175Z,0
2018-11-10T01:40:38.933Z,0
2018-11-10T01:41:38.674Z,0
2018-11-10T01:42:38.972Z,0
2018-11-10T01:43:38.993Z,0
2018-11-10T01:44:39.276Z,0
2018-11-10T01:45:39.299Z,0
2018-11-10T01:46:39.590Z,0
2018-11-10T01:47:39.618Z,0
2018-11-10T01:48:39.360Z,0
2018-11-10T01:49:39.412Z,0
2018-11-10T01:50:39.431Z,0
2018-11-10T01:51:39.439Z,0
2018-11-10T01:52:39.468Z,0
2018-11-10T01:53:39.495Z,0
2018-11-10T01:54:39.251Z,0
2018-11-10T01:55:39.264Z,0
2018-11-10T01:56:39.298Z,0
2018-11-10T01:57:39.303Z,0
2018-11-10T01:58:39.610Z,0
2018-11-10T01:59:39.081Z,0
2018-11-10T02:00:39.112Z,0
2018-11-10T02:01:39.394Z,0
2018-11-10T02:02:39.433Z,0
2018-11-10T02:03:39.699Z,0
2018-11-10T02:04:40.005Z,0
2018-11-10T02:05:40.030Z,0
2018-11-10T02:06:39.610Z,0
2018-11-10T02:07:39.519Z,0
2018-11-10T02:08:39.282Z,0
2018-11-10T02:09:39.854Z,0
2018-11-10T02:10:39.591Z,0
2018-11-10T02:11:39.626Z,0
2018-11-10T02:12:39.649Z,0
2018-11-10T02:13:39.660Z,0
2018-11-10T02:14:39.686Z,0
2018-11-10T02:15:39.984Z,0
2018-11-10T02:16:39.716Z,0
2018-11-10T02:17:39.763Z,0
2018-11-10T02:18:39.778Z,0
2018-11-10T02:19:39.789Z,0
2018-11-10T02:20:39.806Z,0
2018-11-10T02:21:40.377Z,0
2018-11-10T02:22:40.389Z,0
2018-11-10T02:23:39.880Z,0
2018-11-10T02:24:39.896Z,0
2018-11-10T02:25:39.917Z,0
2018-11-10T02:26:39.949Z,0
2018-11-10T02:27:40.237Z,0
2018-11-10T02:28:40.002Z,0
2018-11-10T02:29:40.285Z,0
2018-11-10T02:30:40.573Z,0
2018-11-10T02:31:40.324Z,0
2018-11-10T02:32:40.096Z,0
2018-11-10T02:33:39.830Z,0
2018-11-10T02:34:40.404Z,0
2018-11-10T02:35:40.139Z,0
2018-11-10T02:36:40.444Z,0
2018-11-10T02:37:40.199Z,0
2018-11-10T02:38:40.296Z,0
2018-11-10T02:39:40.512Z,0
2018-11-10T02:40:39.987Z,0
2018-11-10T02:41:40.277Z,0
2018-11-10T02:42:40.299Z,0
2018-11-10T02:43:40.323Z,0
2018-11-10T02:44:40.083Z,0
2018-11-10T02:45:40.906Z,0
2018-11-10T02:46:40.395Z,0
2018-11-10T02:47:40.406Z,0
2018-11-10T02:48:40.437Z,0
2018-11-10T02:49:40.452Z,0
2018-11-10T02:50:40.737Z,0
2018-11-10T02:51:40.767Z,0
2018-11-10T02:52:40.922Z,0
2018-11-10T02:53:40.536Z,0
2018-11-10T02:54:40.562Z,0
2018-11-10T02:55:40.845Z,0
2018-11-10T02:56:40.868Z,0
2018-11-10T02:57:40.623Z,0
2018-11-10T02:58:41.190Z,0
2018-11-10T02:59:40.668Z,0
2018-11-10T03:00:40.959Z,0
2018-11-10T03:01:41.242Z,0
2018-11-10T03:02:40.748Z,0
2018-11-10T03:03:40.777Z,0
2018-11-10T03:04:40.514Z,0
2018-11-10T03:05:40.814Z,0
2018-11-10T03:06:41.380Z,0
2018-11-10T03:07:41.392Z,0
2018-11-10T03:08:41.150Z,0
2018-11-10T03:09:40.885Z,0
2018-11-10T03:10:41.722Z,0
2018-11-10T03:11:40.951Z,0
2018-11-10T03:12:40.956Z,0
2018-11-10T03:13:40.988Z,0
2018-11-10T03:14:41.265Z,0
2018-11-10T03:15:41.031Z,0
2018-11-10T03:16:41.246Z,0
2018-11-10T03:17:41.345Z,0
2018-11-10T03:18:41.086Z,0
2018-11-10T03:19:41.380Z,0
2018-11-10T03:20:41.412Z,0
2018-11-10T03:21:41.437Z,0
2018-11-10T03:22:41.178Z,0
2018-11-10T03:23:41.200Z,0
2018-11-10T03:24:41.222Z,0
2018-11-10T03:25:41.256Z,0
2018-11-10T03:26:41.522Z,0
2018-11-10T03:27:41.276Z,0
2018-11-10T03:28:41.311Z,0
2018-11-10T03:29:41.598Z,0
2018-11-10T03:30:41.357Z,0
2018-11-10T03:31:41.107Z,0
2018-11-10T03:32:41.421Z,0
2018-11-10T03:33:41.150Z,0
2018-11-10T03:34:41.451Z,0
2018-11-10T03:35:41.466Z,0
2018-11-10T03:36:41.217Z,0
2018-11-10T03:37:41.785Z,0
2018-11-10T03:38:41.807Z,0
2018-11-10T03:39:41.285Z,0
2018-11-10T03:40:41.583Z,0
2018-11-10T03:41:41.325Z,0
2018-11-10T03:42:41.884Z,0
2018-11-10T03:43:41.928Z,0
2018-11-10T03:44:41.666Z,0
2018-11-10T03:45:41.960Z,0
2018-11-10T03:46:41.441Z,0
2018-11-10T03:47:41.727Z,0
2018-11-10T03:48:42.476Z,0
2018-11-10T03:49:41.789Z,0
2018-11-10T03:50:42.066Z,0
2018-11-10T03:51:41.559Z,0
2018-11-10T03:52:42.116Z,0
2018-11-10T03:53:41.861Z,0
2018-11-10T03:54:42.142Z,0
2018-11-10T03:55:41.895Z,0
2018-11-10T03:56:41.934Z,0
2018-11-10T03:57:41.960Z,0
2018-11-10T03:58:41.982Z,0
2018-11-10T03:59:41.987Z,0
2018-11-10T04:00:42.013Z,0
2018-11-10T04:01:42.034Z,0
2018-11-10T04:02:42.056Z,0
2018-11-10T04:03:42.093Z,0
2018-11-10T04:04:42.362Z,0
2018-11-10T04:05:42.385Z,0
2018-11-10T04:06:42.148Z,0
2018-11-10T04:07:42.171Z,0
2018-11-10T04:08:42.736Z,0
2018-11-10T04:09:42.207Z,0
2018-11-10T04:10:42.248Z,0
2018-11-10T04:11:42.525Z,0
2018-11-10T04:12:42.027Z,0
2018-11-10T04:13:42.041Z,0
2018-11-10T04:14:42.610Z,0
2018-11-10T04:15:42.603Z,0
2018-11-10T04:16:42.101Z,0
2018-11-10T04:17:42.386Z,0
2018-11-10T04:18:42.399Z,0
2018-11-10T04:19:42.489Z,0
2018-11-10T04:20:42.719Z,0
2018-11-10T04:21:42.479Z,0
2018-11-10T04:22:42.497Z,0
2018-11-10T04:23:42.527Z,0
2018-11-10T04:24:42.549Z,0
2018-11-10T04:25:42.835Z,0
2018-11-10T04:26:42.599Z,0
2018-11-10T04:27:42.333Z,0
2018-11-10T04:28:42.635Z,0
2018-11-10T04:29:43.192Z,0
2018-11-10T04:30:43.216Z,0
2018-11-10T04:31:42.703Z,0
2018-11-10T04:32:43.003Z,0
2018-11-10T04:33:42.753Z,0
2018-11-10T04:34:42.761Z,0
2018-11-10T04:35:43.042Z,0
2018-11-10T04:36:43.071Z,0
2018-11-10T04:37:43.087Z,0
2018-11-10T04:38:43.118Z,0
2018-11-10T04:39:43.156Z,0
2018-11-10T04:40:42.887Z,0
2018-11-10T04:41:42.934Z,0
2018-11-10T04:42:43.486Z,0
2018-11-10T04:43:42.685Z,0
2018-11-10T04:44:42.714Z,0
2018-11-10T04:45:43.264Z,0
2018-11-10T04:46:42.769Z,0
2018-11-10T04:47:43.342Z,0
2018-11-10T04:48:42.801Z,0
2018-11-10T04:49:43.282Z,0
2018-11-10T04:50:43.112Z,0
2018-11-10T04:51:43.397Z,0
2018-11-10T04:52:42.895Z,0
2018-11-10T04:53:42.912Z,0
2018-11-10T04:54:43.487Z,0
2018-11-10T04:55:43.764Z,0
2018-11-10T04:56:43.245Z,0
2018-11-10T04:57:42.997Z,0
2018-11-10T04:58:43.305Z,0
2018-11-10T04:59:43.308Z,0
2018-11-10T05:00:43.336Z,0
2018-11-10T05:01:43.097Z,0
2018-11-10T05:02:43.645Z,0
2018-11-10T05:03:43.397Z,0
2018-11-10T05:04:43.421Z,0
2018-11-10T05:05:43.441Z,0
2018-11-10T05:06:43.726Z,0
2018-11-10T05:07:43.758Z,0
2018-11-10T05:08:43.499Z,0
2018-11-10T05:09:43.793Z,0
2018-11-10T05:10:43.548Z,0
2018-11-10T05:11:43.298Z,0
2018-11-10T05:12:43.880Z,0
2018-11-10T05:13:43.357Z,0
2018-11-10T05:14:43.908Z,0
2018-11-10T05:15:44.232Z,0
2018-11-10T05:16:44.221Z,0
2018-11-10T05:17:43.719Z,0
2018-11-10T05:18:44.267Z,0
2018-11-10T05:19:44.291Z,0
2018-11-10T05:20:44.054Z,0
2018-11-10T05:21:44.331Z,0
2018-11-10T05:22:44.091Z,0
2018-11-10T05:23:43.847Z,0
2018-11-10T05:24:44.132Z,0
2018-11-10T05:25:43.619Z,0
2018-11-10T05:26:44.178Z,0
2018-11-10T05:27:43.657Z,0
2018-11-10T05:28:43.697Z,0
2018-11-10T05:29:44.235Z,0
2018-11-10T05:30:43.990Z,0
2018-11-10T05:31:44.555Z,0
2018-11-10T05:32:44.038Z,0
2018-11-10T05:33:44.352Z,0
2018-11-10T05:34:44.074Z,0
2018-11-10T05:35:43.845Z,0
2018-11-10T05:36:44.404Z,0
2018-11-10T05:37:44.418Z,0
2018-11-10T05:38:44.169Z,0
2018-11-10T05:39:44.204Z,0
2018-11-10T05:40:44.201Z,0
2018-11-10T05:41:43.968Z,0
2018-11-10T05:42:44.794Z,0
2018-11-10T05:43:44.270Z,0
2018-11-10T05:44:44.296Z,0
2018-11-10T05:45:44.320Z,0
2018-11-10T05:46:44.623Z,0
2018-11-10T05:47:44.357Z,0
2018-11-10T05:48:44.689Z,0
2018-11-10T05:49:44.415Z,0
2018-11-10T05:50:44.736Z,0
2018-11-10T05:51:44.444Z,0
2018-11-10T05:52:44.734Z,0
2018-11-10T05:53:44.754Z,0
2018-11-10T05:54:44.245Z,0
2018-11-10T05:55:44.799Z,0
2018-11-10T05:56:44.304Z,0
2018-11-10T05:57:44.592Z,0
2018-11-10T05:58:44.610Z,0
2018-11-10T05:59:44.894Z,0
2018-11-10T06:00:44.647Z,0
2018-11-10T06:01:44.927Z,0
2018-11-10T06:02:44.420Z,0
2018-11-10T06:03:45.240Z,0
2018-11-10T06:04:44.741Z,0
2018-11-10T06:05:45.307Z,0
2018-11-10T06:06:45.040Z,0
2018-11-10T06:07:44.797Z,0
2018-11-10T06:08:45.084Z,0
2018-11-10T06:09:44.672Z,0
2018-11-10T06:10:44.601Z,0
2018-11-10T06:11:45.158Z,0
2018-11-10T06:12:44.927Z,4
2018-11-10T06:13:44.953Z,0
2018-11-10T06:14:45.220Z,0
2018-11-10T06:15:44.700Z,0
2018-11-10T06:16:44.994Z,4
2018-11-10T06:17:45.306Z,0
2018-11-10T06:18:45.439Z,4
2018-11-10T06:19:45.335Z,4
2018-11-10T06:20:44.822Z,4
2018-11-10T06:21:45.368Z,4
2018-11-10T06:22:45.390Z,8
2018-11-10T06:23:45.162Z,8
2018-11-10T06:24:45.191Z,8
2018-11-10T06:25:44.930Z,8
2018-11-10T06:26:44.940Z,12
2018-11-10T06:27:45.521Z,8
2018-11-10T06:28:45.525Z,12
2018-11-10T06:29:45.815Z,12
2018-11-10T06:30:45.570Z,16
2018-11-10T06:31:45.329Z,16
2018-11-10T06:32:45.686Z,16
2018-11-10T06:33:45.381Z,16
2018-11-10T06:34:45.121Z,20
2018-11-10T06:35:45.408Z,20
2018-11-10T06:36:45.708Z,24
2018-11-10T06:37:45.456Z,24
2018-11-10T06:38:45.477Z,24
2018-11-10T06:39:45.771Z,20
2018-11-10T06:40:46.057Z,24
2018-11-10T06:41:45.816Z,20
2018-11-10T06:42:45.566Z,24
2018-11-10T06:43:45.861Z,24
2018-11-10T06:44:46.163Z,24
2018-11-10T06:45:45.637Z,24
2018-11-10T06:46:45.652Z,28
2018-11-10T06:47:45.689Z,28
2018-11-10T06:48:45.700Z,32
2018-11-10T06:49:45.996Z,36
2018-11-10T06:50:45.474Z,44
2018-11-10T06:51:45.778Z,48
2018-11-10T06:52:45.807Z,48
2018-11-10T06:53:45.804Z,48
2018-11-10T06:54:45.833Z,40
2018-11-10T06:55:46.128Z,40
2018-11-10T06:56:45.604Z,36
2018-11-10T06:57:46.176Z,36
2018-11-10T06:58:46.197Z,40
2018-11-10T06:59:45.941Z,44
2018-11-10T07:00:46.217Z,44
2018-11-10T07:01:45.982Z,44
2018-11-10T07:02:45.731Z,52
2018-11-10T07:03:46.288Z,52
2018-11-10T07:04:46.317Z,52
2018-11-10T07:05:45.806Z,52
2018-11-10T07:06:46.349Z,56
2018-11-10T07:07:46.379Z,56
2018-11-10T07:08:46.400Z,64
2018-11-10T07:09:46.601Z,72
2018-11-10T07:10:46.173Z,76
2018-11-10T07:11:46.195Z,88
2018-11-10T07:12:46.509Z,96
2018-11-10T07:13:46.254Z,96
2018-11-10T07:14:46.263Z,96
2018-11-10T07:15:46.302Z,104
2018-11-10T07:16:46.314Z,100
2018-11-10T07:17:46.905Z,104
2018-11-10T07:18:46.634Z,100
2018-11-10T07:19:46.368Z,100
2018-11-10T07:20:46.392Z,88
2018-11-10T07:21:46.688Z,84
2018-11-10T07:22:46.448Z,80
2018-11-10T07:23:46.466Z,80
2018-11-10T07:24:46.563Z,76
2018-11-10T07:25:46.783Z,76
2018-11-10T07:26:46.526Z,84
2018-11-10T07:27:47.093Z,92
2018-11-10T07:28:46.568Z,104
2018-11-10T07:30:46.887Z,108
2018-11-10T07:31:47.019Z,112
2018-11-10T07:32:46.411Z,120
2018-11-10T07:33:46.957Z,124
2018-11-10T07:34:46.963Z,124
2018-11-10T07:35:46.733Z,128
2018-11-10T07:36:46.747Z,128
2018-11-10T07:37:47.026Z,124
2018-11-10T07:38:47.053Z,120
2018-11-10T07:39:47.096Z,116
2018-11-10T07:40:46.561Z,96
2018-11-10T07:41:46.867Z,88
2018-11-10T07:42:47.174Z,100
2018-11-10T07:43:46.908Z,108
2018-11-10T07:44:47.185Z,108
2018-11-10T07:45:46.951Z,108
2018-11-10T07:46:46.689Z,112
2018-11-10T07:47:47.246Z,104
2018-11-10T07:48:47.562Z,104
2018-11-10T07:49:47.313Z,104
2018-11-10T07:50:47.113Z,108
2018-11-10T07:51:47.075Z,108
2018-11-10T07:52:47.371Z,100
2018-11-10T07:53:47.134Z,116
2018-11-10T07:54:47.409Z,120
2018-11-10T07:55:47.670Z,116
2018-11-10T07:56:47.188Z,120
2018-11-10T07:57:47.209Z,128
2018-11-10T07:58:47.778Z,124
2018-11-10T07:59:47.301Z,136
2018-11-10T08:00:47.272Z,132
2018-11-10T08:01:47.288Z,124
2018-11-10T08:02:47.315Z,128
2018-11-10T08:03:47.615Z,140
2018-11-10T08:04:47.354Z,148
2018-11-10T08:05:47.383Z,160
2018-11-10T08:06:47.412Z,168
2018-11-10T08:07:47.711Z,200
2018-11-10T08:08:47.723Z,180
2018-11-10T08:09:47.735Z,168
2018-11-10T08:10:47.497Z,184
2018-11-10T08:11:47.635Z,196
2018-11-10T08:12:47.535Z,208
2018-11-10T08:13:47.816Z,236
2018-11-10T08:14:47.311Z,236
2018-11-10T08:15:47.329Z,216
2018-11-10T08:16:48.155Z,188
2018-11-10T08:17:47.659Z,180
2018-11-10T08:18:48.214Z,164
2018-11-10T08:19:47.709Z,164
2018-11-10T08:20:47.722Z,156
2018-11-10T08:21:48.008Z,152
2018-11-10T08:22:48.030Z,160
2018-11-10T08:23:47.787Z,168
2018-11-10T08:24:48.081Z,180
2018-11-10T08:25:47.823Z,192
2018-11-10T08:26:48.130Z,216
2018-11-10T08:27:47.887Z,244
2018-11-10T08:28:48.156Z,284
2018-11-10T08:29:48.195Z,308
2018-11-10T08:30:48.211Z,316
2018-11-10T08:31:47.951Z,328
2018-11-10T08:32:47.708Z,356
2018-11-10T08:33:48.273Z,400
2018-11-10T08:34:48.014Z,432
2018-11-10T08:35:48.598Z,464
2018-11-10T08:36:48.348Z,448
2018-11-10T08:37:48.087Z,412
2018-11-10T08:38:48.652Z,404
2018-11-10T08:39:48.133Z,396
2018-11-10T08:40:48.168Z,380
2018-11-10T08:41:48.448Z,352
2018-11-10T08:42:48.212Z,332
2018-11-10T08:43:48.762Z,312
2018-11-10T08:44:48.774Z,292
2018-11-10T08:45:48.267Z,292
2018-11-10T08:46:48.015Z,292
2018-11-10T08:47:48.575Z,296
2018-11-10T08:48:48.603Z,316
2018-11-10T08:49:48.356Z,336
2018-11-10T08:50:48.373Z,364
2018-11-10T08:51:48.398Z,388
2018-11-10T08:52:48.411Z,432
2018-11-10T08:53:48.435Z,460
2018-11-10T08:54:48.729Z,484
2018-11-10T08:55:48.225Z,496
2018-11-10T08:56:49.051Z,516
2018-11-10T08:57:48.950Z,540
2018-11-10T08:58:48.854Z,540
2018-11-10T08:59:48.843Z,544
2018-11-10T09:00:48.868Z,552
2018-11-10T09:01:48.622Z,524
2018-11-10T09:02:48.631Z,500
2018-11-10T09:03:48.922Z,472
2018-11-10T09:04:48.676Z,468
2018-11-10T09:05:48.712Z,468
2018-11-10T09:06:48.460Z,456
2018-11-10T09:07:48.474Z,444
2018-11-10T09:08:48.768Z,436
2018-11-10T09:09:49.596Z,432
2018-11-10T09:10:48.544Z,420
2018-11-10T09:11:48.840Z,408
2018-11-10T09:12:48.596Z,400
2018-11-10T09:13:48.873Z,400
2018-11-10T09:14:48.940Z,416
2018-11-10T09:15:48.665Z,432
2018-11-10T09:16:49.495Z,448
2018-11-10T09:17:49.620Z,472
2018-11-10T09:18:49.260Z,508
2018-11-10T09:19:48.739Z,536
2018-11-10T09:20:48.764Z,548
2018-11-10T09:21:49.206Z,556
2018-11-10T09:22:49.080Z,580
2018-11-10T09:23:49.105Z,596
2018-11-10T09:24:48.857Z,604
2018-11-10T09:25:49.136Z,612
2018-11-10T09:26:49.173Z,616
2018-11-10T09:27:49.463Z,612
2018-11-10T09:28:48.941Z,612
2018-11-10T09:29:49.489Z,612
2018-11-10T09:30:49.647Z,608
2018-11-10T09:31:49.554Z,604
2018-11-10T09:32:49.303Z,608
2018-11-10T09:33:49.577Z,612
2018-11-10T09:34:49.352Z,624
2018-11-10T09:35:49.643Z,640
2018-11-10T09:36:49.384Z,660
2018-11-10T09:37:49.670Z,680
2018-11-10T09:38:49.419Z,708
2018-11-10T09:39:49.457Z,724
2018-11-10T09:40:49.489Z,736
2018-11-10T09:41:49.509Z,724
2018-11-10T09:42:50.651Z,700
2018-11-10T09:43:49.533Z,672
2018-11-10T09:44:49.837Z,656
2018-11-10T09:45:49.851Z,644
2018-11-10T09:46:49.627Z,636
2018-11-10T09:47:49.902Z,628
2018-11-10T09:48:49.649Z,624
2018-11-10T09:49:49.968Z,592
2018-11-10T09:50:49.755Z,560
2018-11-10T09:51:49.994Z,524
2018-11-10T09:52:50.012Z,492
2018-11-10T09:53:50.040Z,472
2018-11-10T09:54:49.798Z,468
2018-11-10T09:55:50.065Z,472
2018-11-10T09:56:49.834Z,492
2018-11-10T09:57:49.581Z,520
2018-11-10T09:58:50.129Z,544
2018-11-10T09:59:50.153Z,568
2018-11-10T10:00:50.193Z,596
2018-11-10T10:01:52.168Z,624
2018-11-10T10:02:51.947Z,664
2018-11-10T10:03:49.720Z,708
2018-11-10T10:04:50.023Z,732
2018-11-10T10:05:50.035Z,744
2018-11-10T10:06:50.320Z,760
2018-11-10T10:07:50.064Z,776
2018-11-10T10:08:50.234Z,792
2018-11-10T10:09:49.846Z,808
2018-11-10T10:10:50.394Z,832
2018-11-10T10:11:50.421Z,836
2018-11-10T10:12:50.710Z,828
2018-11-10T10:13:50.493Z,800
2018-11-10T10:14:49.959Z,764
2018-11-10T10:15:50.565Z,732
2018-11-10T10:16:50.753Z,724
2018-11-10T10:17:50.304Z,732
2018-11-10T10:18:50.318Z,760
2018-11-10T10:19:50.606Z,784
2018-11-10T10:20:50.105Z,812
2018-11-10T10:21:50.825Z,844
2018-11-10T10:22:50.408Z,880
2018-11-10T10:23:50.417Z,904
2018-11-10T10:24:50.449Z,920
2018-11-10T10:25:51.004Z,936
2018-11-10T10:26:50.234Z,952
2018-11-10T10:27:50.773Z,960
2018-11-10T10:28:50.707Z,956
2018-11-10T10:29:50.300Z,948
2018-11-10T10:30:50.586Z,936
2018-11-10T10:31:50.862Z,920
2018-11-10T10:32:50.892Z,912
2018-11-10T10:33:50.968Z,900
2018-11-10T10:34:51.017Z,892
2018-11-10T10:35:50.683Z,892
2018-11-10T10:36:50.443Z,900
2018-11-10T10:37:51.002Z,904
2018-11-10T10:38:50.757Z,904
2018-11-10T10:39:51.314Z,904
2018-11-10T10:40:50.803Z,904
2018-11-10T10:41:50.833Z,908
2018-11-10T10:42:50.673Z,908
2018-11-10T10:43:50.866Z,916
2018-11-10T10:44:50.882Z,928
2018-11-10T10:45:50.903Z,932
2018-11-10T10:46:50.946Z,936
2018-11-10T10:47:51.215Z,948
2018-11-10T10:48:51.933Z,960
2018-11-10T10:49:50.734Z,956
2018-11-10T10:50:50.757Z,948
2018-11-10T10:51:51.322Z,940
2018-11-10T10:52:50.807Z,924
2018-11-10T10:53:51.375Z,912
2018-11-10T10:54:51.108Z,892
2018-11-10T10:55:51.238Z,872
2018-11-10T10:56:51.247Z,856
2018-11-10T10:57:50.916Z,844
2018-11-10T10:58:51.216Z,828
2018-11-10T10:59:51.493Z,824
2018-11-10T11:00:50.978Z,824
2018-11-10T11:01:51.264Z,820
2018-11-10T11:02:51.519Z,820
2018-11-10T11:03:51.309Z,828
2018-11-10T11:04:51.596Z,820
2018-11-10T11:05:51.350Z,796
2018-11-10T11:06:51.111Z,780
2018-11-10T11:07:51.392Z,768
2018-11-10T11:08:51.485Z,764
2018-11-10T11:09:51.169Z,780
2018-11-10T11:10:51.734Z,792
2018-11-10T11:11:51.766Z,784
2018-11-10T11:12:51.779Z,776
2018-11-10T11:13:51.529Z,760
2018-11-10T11:14:51.828Z,744
2018-11-10T11:15:51.804Z,732
2018-11-10T11:16:51.598Z,756
2018-11-10T11:17:51.361Z,808
2018-11-10T11:18:51.648Z,876
2018-11-10T11:19:51.948Z,936
2018-11-10T11:20:51.963Z,964
2018-11-10T11:21:51.884Z,984
2018-11-10T11:22:52.008Z,992
2018-11-10T11:23:51.486Z,992
2018-11-10T11:24:52.053Z,996
2018-11-10T11:25:51.815Z,1012
2018-11-10T11:26:51.822Z,1012
2018-11-10T11:27:51.871Z,1040
2018-11-10T11:28:52.133Z,1096
2018-11-10T11:29:52.954Z,1156
2018-11-10T11:30:52.181Z,1216
2018-11-10T11:31:52.189Z,1264
2018-11-10T11:32:51.683Z,1284
2018-11-10T11:33:52.497Z,1296
2018-11-10T11:34:52.009Z,1312
2018-11-10T11:35:51.751Z,1328
2018-11-10T11:36:51.781Z,1356
2018-11-10T11:37:52.603Z,1420
2018-11-10T11:38:52.099Z,1452
2018-11-10T11:39:53.910Z,1416
2018-11-10T11:40:56.824Z,1296
2018-11-10T11:41:55.468Z,1128
2018-11-10T11:42:54.851Z,948
2018-11-10T11:43:55.476Z,828
2018-11-10T11:44:55.004Z,780
2018-11-10T11:45:55.101Z,744
2018-11-10T11:46:55.031Z,732
2018-11-10T11:47:54.806Z,760
2018-11-10T11:48:54.746Z,788
2018-11-10T11:49:53.845Z,736
2018-11-10T11:50:52.640Z,740
2018-11-10T11:51:52.389Z,748
2018-11-10T11:52:52.134Z,764
2018-11-10T11:53:52.976Z,784
2018-11-10T11:54:52.176Z,808
2018-11-10T11:55:52.736Z,832
2018-11-10T11:56:52.229Z,876
2018-11-10T11:57:52.418Z,888
2018-11-10T11:58:52.834Z,864
2018-11-10T11:59:52.569Z,852
2018-11-10T12:00:52.319Z,908
2018-11-10T12:01:52.356Z,960
2018-11-10T12:02:52.894Z,960
2018-11-10T12:03:53.180Z,928
2018-11-10T12:04:52.681Z,900
2018-11-10T12:05:52.963Z,844
2018-11-10T12:06:52.744Z,800
2018-11-10T12:07:52.492Z,788
2018-11-10T12:08:52.759Z,760
2018-11-10T12:09:52.784Z,764
2018-11-10T12:10:52.825Z,796
2018-11-10T12:11:53.113Z,900
2018-11-10T12:12:53.117Z,1064
2018-11-10T12:13:53.420Z,1228
2018-11-10T12:14:53.467Z,1328
2018-11-10T12:15:52.668Z,1400
2018-11-10T12:16:53.559Z,1432
2018-11-10T12:17:53.260Z,1388
2018-11-10T12:18:53.278Z,1348
2018-11-10T12:19:53.579Z,1300
2018-11-10T12:20:53.549Z,1252
2018-11-10T12:21:53.088Z,1220
2018-11-10T12:22:53.375Z,1156
2018-11-10T12:23:53.121Z,1164
2018-11-10T12:24:53.668Z,1180
2018-11-10T12:25:53.151Z,1164
2018-11-10T12:26:53.725Z,1224
2018-11-10T12:27:53.473Z,1316
2018-11-10T12:28:53.235Z,1368
2018-11-10T12:29:53.262Z,1400
2018-11-10T12:30:53.286Z,1424
2018-11-10T12:31:53.834Z,1436
2018-11-10T12:32:53.332Z,1420
2018-11-10T12:33:53.353Z,1408
2018-11-10T12:34:53.366Z,1400
2018-11-10T12:35:53.945Z,1368
2018-11-10T12:36:53.137Z,1316
2018-11-10T12:37:53.707Z,1240
2018-11-10T12:38:53.756Z,1216
2018-11-10T12:39:53.474Z,1220
2018-11-10T12:40:53.516Z,1244
2018-11-10T12:41:53.790Z,1200
2018-11-10T12:42:53.274Z,1144
2018-11-10T12:43:53.569Z,1056
2018-11-10T12:44:53.587Z,1056
2018-11-10T12:45:53.770Z,1036
2018-11-10T12:46:53.377Z,1048
2018-11-10T12:47:53.668Z,1032
2018-11-10T12:48:53.713Z,1080
2018-11-10T12:49:53.703Z,1040
2018-11-10T12:50:53.721Z,1036
2018-11-10T12:51:54.014Z,1004
2018-11-10T12:52:54.045Z,936
2018-11-10T12:53:53.813Z,916
2018-11-10T12:54:54.302Z,908
2018-11-10T12:55:53.850Z,892
2018-11-10T12:56:53.598Z,892
2018-11-10T12:57:54.252Z,892
2018-11-10T12:58:53.682Z,880
2018-11-10T12:59:54.207Z,884
2018-11-10T13:00:54.246Z,840
2018-11-10T13:01:54.245Z,816
2018-11-10T13:02:53.731Z,684
2018-11-10T13:03:53.763Z,568
2018-11-10T13:04:54.051Z,536
2018-11-10T13:05:54.070Z,480
2018-11-10T13:06:54.666Z,436
2018-11-10T13:07:53.896Z,476
2018-11-10T13:08:53.948Z,488
2018-11-10T13:09:54.172Z,404
2018-11-10T13:10:54.829Z,472
2018-11-10T13:11:54.067Z,392
2018-11-10T13:12:54.810Z,468
2018-11-10T13:13:54.261Z,480
2018-11-10T13:14:54.558Z,376
2018-11-10T13:15:54.309Z,480
2018-11-10T13:16:54.052Z,608
2018-11-10T13:17:54.091Z,800
2018-11-10T13:18:54.637Z,796
2018-11-10T13:19:54.392Z,792
2018-11-10T13:20:54.811Z,848
2018-11-10T13:21:54.719Z,864
2018-11-10T13:22:54.465Z,800
2018-11-10T13:23:55.095Z,740
2018-11-10T13:24:54.766Z,688
2018-11-10T13:25:54.270Z,620
2018-11-10T13:26:54.833Z,568
2018-11-10T13:27:54.300Z,528
2018-11-10T13:28:55.146Z,492
2018-11-10T13:29:54.630Z,464
2018-11-10T13:30:55.265Z,416
2018-11-10T13:31:55.443Z,388
2018-11-10T13:32:54.966Z,360
2018-11-10T13:33:54.976Z,328
2018-11-10T13:34:54.474Z,324
2018-11-10T13:35:54.486Z,320
2018-11-10T13:36:54.776Z,328
2018-11-10T13:37:54.580Z,324
2018-11-10T13:38:54.557Z,324
2018-11-10T13:39:54.835Z,320
2018-11-10T13:40:54.862Z,300
2018-11-10T13:41:55.158Z,320
2018-11-10T13:42:54.928Z,336
2018-11-10T13:43:55.104Z,316
2018-11-10T13:44:54.693Z,332
2018-11-10T13:45:55.241Z,340
2018-11-10T13:46:55.268Z,340
2018-11-10T13:47:55.302Z,364
2018-11-10T13:48:54.775Z,320
2018-11-10T13:49:55.339Z,320
2018-11-10T13:50:56.367Z,292
2018-11-10T13:51:56.990Z,288
2018-11-10T13:52:56.604Z,344
2018-11-10T13:53:54.893Z,364
2018-11-10T13:54:55.452Z,360
2018-11-10T13:55:55.258Z,352
2018-11-10T13:56:55.491Z,376
2018-11-10T13:57:54.988Z,376
2018-11-10T13:58:55.790Z,360
2018-11-10T13:59:55.619Z,344
2018-11-10T14:00:55.610Z,340
2018-11-10T14:01:55.337Z,312
2018-11-10T14:02:55.911Z,304
2018-11-10T14:03:55.372Z,304
2018-11-10T14:04:55.404Z,308
2018-11-10T14:05:55.685Z,324
2018-11-10T14:06:55.710Z,340
2018-11-10T14:07:55.472Z,344
2018-11-10T14:08:55.775Z,336
2018-11-10T14:09:55.780Z,336
2018-11-10T14:10:55.549Z,336
2018-11-10T14:11:55.551Z,340
2018-11-10T14:12:55.711Z,348
2018-11-10T14:13:55.868Z,352